createdAt,value
2022-10-23T00:00:02.677Z,99.5
2022-10-23T00:05:10.896Z,99.5
2022-10-23T00:10:19.209Z,99.5
2022-10-23T00:15:27.483Z,99.5
2022-10-23T00:20:35.782Z,99.5
2022-10-23T00:25:45.077Z,99.5
2022-10-23T00:30:52.535Z,99.5
2022-10-23T00:35:59.770Z,99.5
2022-10-23T00:41:07.048Z,99.5
2022-10-23T00:46:14.312Z,99.5
2022-10-23T00:51:21.578Z,99.5
2022-10-23T00:56:28.910Z,99.5
2022-10-23T01:01:36.166Z,99.5
2022-10-23T01:06:43.458Z,99.5
2022-10-23T01:11:50.762Z,99.5
2022-10-23T01:16:58.071Z,99.5
2022-10-23T01:22:05.423Z,99.5
2022-10-23T01:27:12.673Z,99.5
2022-10-23T01:32:19.986Z,99.5
2022-10-23T01:37:27.229Z,99.5
2022-10-23T01:42:34.558Z,99.5
2022-10-23T01:47:41.861Z,99.5
2022-10-23T01:52:49.197Z,99.5
2022-10-23T01:57:56.533Z,99.5
2022-10-23T02:03:03.831Z,99.5
2022-10-23T02:08:11.158Z,99.5
2022-10-23T02:13:18.473Z,99.5
2022-10-23T02:18:25.814Z,99.5
2022-10-23T02:23:33.145Z,99.5
2022-10-23T02:28:40.475Z,99.5
2022-10-23T02:33:47.763Z,99.5
2022-10-23T02:38:55.192Z,99.5
2022-10-23T02:44:02.598Z,99.5
2022-10-23T02:49:10.036Z,99.5
2022-10-23T02:54:17.472Z,99.5
2022-10-23T02:59:24.871Z,99.5
2022-10-23T03:04:32.273Z,99.5
2022-10-23T03:09:39.748Z,99.5
2022-10-23T03:14:47.116Z,99.5
2022-10-23T03:19:54.527Z,99.5
2022-10-23T03:25:01.923Z,99.5
2022-10-23T03:30:09.357Z,99.5
2022-10-23T03:35:16.752Z,99.5
2022-10-23T03:40:24.161Z,99.5
2022-10-23T03:45:31.726Z,99.5
2022-10-23T03:50:39.363Z,99.5
2022-10-23T03:55:46.867Z,99.5
2022-10-23T04:00:54.460Z,99.5
2022-10-23T04:06:02.030Z,99.5
2022-10-23T04:11:09.654Z,99.5
2022-10-23T04:16:17.195Z,99.5
2022-10-23T04:21:24.816Z,99.5
2022-10-23T04:26:32.436Z,99.5
2022-10-23T04:31:40.007Z,99.5
2022-10-23T04:36:47.607Z,99.5
2022-10-23T04:41:55.195Z,99.5
2022-10-23T04:47:02.751Z,99.5
2022-10-23T04:52:10.609Z,99.5
2022-10-23T04:57:18.439Z,99.5
2022-10-23T05:02:26.312Z,99.5
2022-10-23T05:07:34.224Z,99.5
2022-10-23T05:12:41.926Z,99.5
2022-10-23T05:17:49.777Z,99.5
2022-10-23T05:22:57.566Z,99.5
2022-10-23T05:28:05.339Z,99.5
2022-10-23T05:33:13.143Z,99.5
2022-10-23T05:38:20.999Z,99.5
2022-10-23T05:43:28.751Z,99.5
2022-10-23T05:48:36.549Z,99.5
2022-10-23T05:53:44.372Z,99.5
2022-10-23T05:58:52.816Z,99.5
2022-10-23T06:04:01.167Z,99.5
2022-10-23T06:09:09.598Z,99.5
2022-10-23T06:14:17.926Z,99.5
2022-10-23T06:19:26.308Z,99.5
2022-10-23T06:24:34.672Z,99.5
2022-10-23T06:29:43.006Z,99.5
2022-10-23T06:34:51.323Z,99.5
2022-10-23T06:39:59.694Z,99.5
2022-10-23T06:45:07.992Z,99.5
2022-10-23T06:50:16.371Z,99.5
2022-10-23T06:55:24.562Z,99.5
2022-10-23T07:00:32.878Z,99.5
2022-10-23T07:05:42.238Z,99.5
2022-10-23T07:10:49.417Z,99.5
2022-10-23T07:15:56.523Z,99.5
2022-10-23T07:21:03.672Z,99.5
2022-10-23T07:26:10.752Z,99.5
2022-10-23T07:31:17.830Z,99.5
2022-10-23T07:36:24.908Z,99.5
2022-10-23T07:41:31.958Z,99.5
2022-10-23T07:46:38.928Z,96.5
2022-10-23T07:51:45.900Z,95.5
2022-10-23T07:56:52.862Z,93.5
2022-10-23T08:01:59.749Z,95
2022-10-23T08:07:06.703Z,94
2022-10-23T08:12:13.596Z,94.5
2022-10-23T08:17:20.531Z,92
2022-10-23T08:22:27.421Z,87.5
2022-10-23T08:27:34.351Z,90.5
2022-10-23T08:32:41.232Z,90
2022-10-23T08:37:48.136Z,90.5
2022-10-23T08:42:54.999Z,90.5
2022-10-23T08:48:01.790Z,87.5
2022-10-23T08:53:08.630Z,83.5
2022-10-23T08:58:15.515Z,82.5
2022-10-23T09:03:22.269Z,83.5
2022-10-23T09:08:29.073Z,80.5
2022-10-23T09:13:35.868Z,82
2022-10-23T09:18:42.723Z,79.5
2022-10-23T09:23:49.580Z,77.5
2022-10-23T09:28:56.444Z,78.5
2022-10-23T09:34:03.330Z,79
2022-10-23T09:39:10.168Z,82.5
2022-10-23T09:44:16.989Z,81.5
2022-10-23T09:49:23.887Z,80
2022-10-23T09:54:30.720Z,79.5
2022-10-23T09:59:37.524Z,78.5
2022-10-23T10:04:44.366Z,81.5
2022-10-23T10:09:51.209Z,83
2022-10-23T10:14:58.044Z,82.5
2022-10-23T10:20:04.911Z,82
2022-10-23T10:25:11.823Z,79.5
2022-10-23T10:30:18.802Z,84
2022-10-23T10:35:25.704Z,80.5
2022-10-23T10:40:32.635Z,81
2022-10-23T10:45:39.562Z,79.5
2022-10-23T10:50:46.467Z,78.5
2022-10-23T10:55:53.392Z,75.5
2022-10-23T11:01:00.266Z,71.5
2022-10-23T11:06:07.152Z,74
2022-10-23T11:11:14.037Z,73
2022-10-23T11:16:20.907Z,72.5
2022-10-23T11:21:27.763Z,71
2022-10-23T11:26:34.592Z,73
2022-10-23T11:31:41.665Z,74
2022-10-23T11:36:48.744Z,75.5
2022-10-23T11:41:55.841Z,74.5
2022-10-23T11:57:16.981Z,77.5
2022-10-23T12:02:24.039Z,78.5
2022-10-23T12:07:31.113Z,78.5
2022-10-23T12:12:38.217Z,77.5
2022-10-23T12:17:45.293Z,77
2022-10-23T12:22:52.355Z,77
2022-10-23T12:27:59.442Z,75.5
2022-10-23T12:33:06.485Z,71.5
2022-10-23T12:38:14.165Z,71
2022-10-23T12:43:20.540Z,69.5
2022-10-23T12:48:27.357Z,74.5
2022-10-23T12:53:34.128Z,75
2022-10-23T12:58:40.875Z,77.5
2022-10-23T13:03:47.707Z,78.5
2022-10-23T13:08:54.469Z,78
2022-10-23T13:14:01.277Z,78.5
2022-10-23T13:19:08.135Z,78
2022-10-23T13:24:14.948Z,78.5
2022-10-23T13:29:21.799Z,79.5
2022-10-23T13:34:28.642Z,79.5
2022-10-23T13:39:35.518Z,80
2022-10-23T13:44:42.342Z,80
2022-10-23T13:49:49.203Z,79
2022-10-23T13:54:56.065Z,79
2022-10-23T14:00:02.956Z,80
2022-10-23T14:05:09.861Z,81
2022-10-23T14:10:16.745Z,81.5
2022-10-23T14:15:23.661Z,82.5
2022-10-23T14:20:30.552Z,84
2022-10-23T14:25:37.473Z,84.5
2022-10-23T14:30:44.374Z,84.5
2022-10-23T14:35:51.337Z,85
2022-10-23T14:40:58.326Z,85.5
2022-10-23T14:46:05.301Z,86
2022-10-23T14:51:12.519Z,86.5
2022-10-23T14:56:19.770Z,86.5
2022-10-23T15:01:27.045Z,86.5
2022-10-23T15:06:34.296Z,86.5
2022-10-23T15:11:41.589Z,86
2022-10-23T15:16:48.811Z,86.5
2022-10-23T15:21:56.030Z,87.5
2022-10-23T15:27:03.331Z,87.5
2022-10-23T15:32:10.505Z,88
2022-10-23T15:37:17.762Z,88
2022-10-23T15:42:24.986Z,88
2022-10-23T15:47:32.173Z,88.5
2022-10-23T15:52:39.454Z,88
2022-10-23T15:57:47.317Z,88
2022-10-23T16:02:53.816Z,88.5
2022-10-23T16:08:00.679Z,88
2022-10-23T16:13:07.583Z,88.5
2022-10-23T16:18:14.488Z,89
2022-10-23T16:23:21.378Z,89.5
2022-10-23T16:28:28.285Z,89.5
2022-10-23T16:33:35.223Z,89.5
2022-10-23T16:38:42.213Z,89.5
2022-10-23T16:43:49.188Z,89
2022-10-23T16:48:56.152Z,90
2022-10-23T16:54:03.133Z,89
2022-10-23T16:59:10.098Z,89
2022-10-23T17:04:17.065Z,89
2022-10-23T17:09:24.045Z,89
2022-10-23T17:14:30.993Z,88.5
2022-10-23T17:19:37.968Z,88.5
2022-10-23T17:24:44.905Z,89
2022-10-23T17:29:51.885Z,89.5
2022-10-23T17:34:58.859Z,89.5
2022-10-23T17:40:05.821Z,88.5
2022-10-23T17:45:12.853Z,87
2022-10-23T17:50:19.848Z,88
2022-10-23T17:55:26.870Z,87.5
2022-10-23T18:00:33.910Z,87.5
2022-10-23T18:05:40.896Z,88
2022-10-23T18:10:48.050Z,86.5
2022-10-23T18:15:55.200Z,86
2022-10-23T18:21:02.366Z,85.5
2022-10-23T18:26:09.482Z,85.5
2022-10-23T18:31:16.609Z,85.5
2022-10-23T18:36:23.699Z,85.5
2022-10-23T18:41:30.813Z,86
2022-10-23T18:46:37.960Z,85.5
2022-10-23T18:51:45.078Z,86
2022-10-23T18:56:52.206Z,86
2022-10-23T19:01:59.428Z,86.5
2022-10-23T19:07:06.534Z,86.5
2022-10-23T19:12:13.699Z,86.5
2022-10-23T19:17:21.226Z,87.5
2022-10-23T19:22:28.563Z,87
2022-10-23T19:27:35.919Z,87
2022-10-23T19:32:43.332Z,87
2022-10-23T19:37:50.792Z,86
2022-10-23T19:42:58.138Z,85.5
2022-10-23T19:48:05.537Z,86
2022-10-23T19:53:12.987Z,86.5
2022-10-23T19:58:20.349Z,86
2022-10-23T20:03:27.739Z,86
2022-10-23T20:08:35.133Z,86.5
2022-10-23T20:13:42.607Z,86.5
2022-10-23T20:18:49.963Z,86
2022-10-23T20:23:58.101Z,86.5
2022-10-23T20:29:06.008Z,86.5
2022-10-23T20:34:14.014Z,86.5
2022-10-23T20:39:22.006Z,86.5
2022-10-23T20:44:30.057Z,87
2022-10-23T20:49:38.048Z,91.5
2022-10-23T20:54:46.161Z,91
2022-10-23T20:59:54.126Z,91.5
2022-10-23T21:05:02.102Z,90
2022-10-23T21:10:10.122Z,88.5
2022-10-23T21:15:18.160Z,88
2022-10-23T21:20:26.214Z,88
2022-10-23T21:25:34.180Z,88
2022-10-23T21:30:43.211Z,89
2022-10-23T21:35:50.497Z,91
2022-10-23T21:40:57.562Z,92
2022-10-23T21:46:04.603Z,93.5
2022-10-23T21:51:11.640Z,99.5
2022-10-23T21:56:18.709Z,99.5
2022-10-23T22:01:25.785Z,99.5
2022-10-23T22:06:32.848Z,99.5
2022-10-23T22:11:39.944Z,99.5
2022-10-23T22:16:47.039Z,99.5
2022-10-23T22:21:54.139Z,99.5
2022-10-23T22:27:01.249Z,99.5
2022-10-23T22:32:08.408Z,99.5
2022-10-23T22:37:15.429Z,99.5
2022-10-23T22:42:22.571Z,99.5
2022-10-23T22:47:29.655Z,99.5
2022-10-23T22:52:36.766Z,99.5
2022-10-23T22:57:43.879Z,99.5
2022-10-23T23:02:51.039Z,99.5
2022-10-23T23:07:58.080Z,99.5
2022-10-23T23:13:05.196Z,99.5
2022-10-23T23:18:12.251Z,99.5
2022-10-23T23:23:19.352Z,99.5
2022-10-23T23:28:26.421Z,99.5
2022-10-23T23:33:33.541Z,99.5
2022-10-23T23:38:40.611Z,99.5
2022-10-23T23:43:47.840Z,99.5
2022-10-23T23:48:55.051Z,99.5
2022-10-23T23:54:02.307Z,99.5
2022-10-23T23:59:09.543Z,99.5
